createdAt,value
2019-02-24T00:02:01.785Z,23.60
2019-02-24T00:04:38.490Z,23.70
2019-02-24T00:07:15.498Z,23.80
2019-02-24T00:09:52.629Z,23.90
2019-02-24T00:12:30.571Z,23.90
2019-02-24T00:15:07.422Z,23.90
2019-02-24T00:17:44.572Z,24.00
2019-02-24T00:20:21.262Z,24.00
2019-02-24T00:22:58.281Z,24.00
2019-02-24T00:25:35.229Z,24.30
2019-02-24T00:28:11.992Z,24.40
2019-02-24T00:30:48.587Z,24.30
2019-02-24T00:33:25.961Z,24.30
2019-02-24T00:36:03.031Z,24.40
2019-02-24T00:38:39.982Z,24.60
2019-02-24T00:41:17.547Z,24.70
2019-02-24T00:43:54.841Z,24.70
2019-02-24T00:46:31.791Z,24.80
2019-02-24T00:49:08.240Z,24.90
2019-02-24T00:51:54.678Z,25.00
2019-02-24T00:54:31.874Z,25.20
2019-02-24T00:57:09.512Z,25.30
2019-02-24T00:59:46.384Z,25.40
2019-02-24T01:02:23.338Z,25.40
2019-02-24T01:05:00.759Z,25.60
2019-02-24T01:07:37.577Z,25.80
2019-02-24T01:10:14.589Z,25.90
2019-02-24T01:12:51.294Z,26.10
2019-02-24T01:15:28.542Z,26.20
2019-02-24T01:18:05.359Z,26.40
2019-02-24T01:20:42.544Z,26.50
2019-02-24T01:23:19.401Z,26.50
2019-02-24T01:25:56.361Z,26.70
2019-02-24T01:28:33.286Z,26.80
2019-02-24T01:31:10.286Z,27.00
2019-02-24T01:33:47.129Z,27.10
2019-02-24T01:36:24.318Z,27.10
2019-02-24T01:39:00.900Z,27.30
2019-02-24T01:41:38.970Z,27.40
2019-02-24T01:44:15.745Z,27.50
2019-02-24T01:46:53.300Z,27.60
2019-02-24T01:49:29.929Z,27.70
2019-02-24T01:52:07.357Z,27.80
2019-02-24T01:54:44.890Z,27.90
2019-02-24T01:57:22.204Z,28.10
2019-02-24T01:59:59.311Z,28.20
2019-02-24T02:02:37.471Z,28.30
2019-02-24T02:05:15.499Z,28.40
2019-02-24T02:07:52.867Z,28.40
2019-02-24T02:10:29.917Z,28.70
2019-02-24T02:13:06.777Z,28.90
2019-02-24T02:15:43.673Z,29.00
2019-02-24T02:18:20.555Z,29.30
2019-02-24T02:20:58.784Z,29.40
2019-02-24T02:23:35.958Z,29.40
2019-02-24T02:26:13.103Z,29.70
2019-02-24T02:28:50.980Z,29.80
2019-02-24T02:31:27.728Z,30.00
2019-02-24T02:34:04.603Z,30.10
2019-02-24T02:36:41.344Z,30.10
2019-02-24T02:39:18.359Z,30.40
2019-02-24T02:41:54.902Z,30.60
2019-02-24T02:44:31.820Z,30.90
2019-02-24T02:47:08.755Z,31.00
2019-02-24T02:49:45.254Z,31.10
2019-02-24T02:52:21.900Z,31.20
2019-02-24T02:54:58.561Z,31.30
2019-02-24T02:57:35.851Z,31.40
2019-02-24T03:00:20.568Z,31.50
2019-02-24T03:02:57.210Z,31.70
2019-02-24T03:05:33.899Z,31.80
2019-02-24T03:08:12.698Z,31.90
2019-02-24T03:10:49.574Z,31.90
2019-02-24T03:13:26.440Z,32.20
2019-02-24T03:16:03.375Z,32.30
2019-02-24T03:18:40.233Z,32.20
2019-02-24T03:21:17.175Z,32.40
2019-02-24T03:23:54.276Z,32.60
2019-02-24T03:26:30.438Z,32.80
2019-02-24T03:29:07.173Z,32.70
2019-02-24T03:31:44.171Z,32.90
2019-02-24T03:34:20.449Z,32.90
2019-02-24T03:36:57.491Z,33.00
2019-02-24T03:39:34.426Z,32.70
2019-02-24T03:42:11.784Z,33.10
2019-02-24T03:44:48.097Z,33.10
2019-02-24T03:47:25.219Z,33.10
2019-02-24T03:50:01.863Z,33.10
2019-02-24T03:52:39.199Z,33.30
2019-02-24T03:55:15.914Z,33.50
2019-02-24T03:57:52.733Z,33.60
2019-02-24T04:00:29.291Z,33.70
2019-02-24T04:03:05.933Z,33.70
2019-02-24T04:05:42.860Z,33.70
2019-02-24T04:08:19.882Z,33.50
2019-02-24T04:10:56.363Z,33.50
2019-02-24T04:13:34.169Z,33.40
2019-02-24T04:16:10.958Z,33.50
2019-02-24T04:18:47.912Z,33.30
2019-02-24T04:21:25.792Z,33.30
2019-02-24T04:24:02.937Z,33.70
2019-02-24T04:26:39.970Z,33.80
2019-02-24T04:29:24.529Z,33.80
2019-02-24T04:31:54.844Z,34.00
2019-02-24T04:34:31.354Z,34.20
2019-02-24T04:37:08.175Z,34.20
2019-02-24T04:39:45.483Z,34.20
2019-02-24T04:42:22.264Z,34.30
2019-02-24T04:45:00.799Z,34.00
2019-02-24T04:47:37.718Z,34.10
2019-02-24T04:50:14.450Z,34.00
2019-02-24T04:52:51.128Z,34.20
2019-02-24T04:55:28.261Z,34.10
2019-02-24T04:58:04.614Z,33.90
2019-02-24T05:00:41.840Z,34.20
2019-02-24T05:03:18.517Z,34.40
2019-02-24T05:05:55.669Z,34.20
2019-02-24T05:08:34.298Z,34.50
2019-02-24T05:11:14.599Z,34.80
2019-02-24T05:13:51.492Z,34.60
2019-02-24T05:16:28.283Z,34.60
2019-02-24T05:19:05.424Z,34.80
2019-02-24T05:21:42.545Z,34.90
2019-02-24T05:24:19.073Z,34.80
2019-02-24T05:26:57.608Z,34.70
2019-02-24T05:29:34.269Z,34.60
2019-02-24T05:32:11.492Z,34.90
2019-02-24T05:34:48.066Z,34.80
2019-02-24T05:37:25.085Z,34.80
2019-02-24T05:40:03.618Z,35.10
2019-02-24T05:42:42.416Z,35.20
2019-02-24T05:45:19.831Z,35.20
2019-02-24T05:47:58.091Z,35.20
2019-02-24T05:50:34.726Z,35.40
2019-02-24T05:53:12.046Z,35.50
2019-02-24T05:55:48.999Z,35.40
2019-02-24T05:58:26.132Z,35.50
2019-02-24T06:01:03.047Z,35.30
2019-02-24T06:03:41.266Z,35.20
2019-02-24T06:06:17.901Z,35.50
2019-02-24T06:08:55.355Z,35.60
2019-02-24T06:11:32.006Z,35.70
2019-02-24T06:14:09.087Z,35.80
2019-02-24T06:16:45.618Z,35.60
2019-02-24T06:19:22.721Z,35.70
2019-02-24T06:21:59.452Z,35.80
2019-02-24T06:24:36.861Z,35.60
2019-02-24T06:27:13.797Z,35.60
2019-02-24T06:29:50.645Z,35.90
2019-02-24T06:32:27.358Z,35.70
2019-02-24T06:35:04.636Z,35.70
2019-02-24T06:37:41.013Z,36.00
2019-02-24T06:40:18.278Z,36.10
2019-02-24T06:42:54.599Z,36.00
2019-02-24T06:45:32.001Z,36.10
2019-02-24T06:48:08.690Z,36.20
2019-02-24T06:51:04.137Z,36.00
2019-02-24T06:53:40.979Z,36.10
2019-02-24T06:56:18.030Z,36.20
2019-02-24T06:58:54.906Z,36.20
2019-02-24T07:01:31.395Z,36.30
2019-02-24T07:04:08.542Z,36.30
2019-02-24T07:06:46.370Z,36.10
2019-02-24T07:09:24.394Z,36.20
2019-02-24T07:12:01.321Z,36.20
2019-02-24T07:14:38.132Z,36.30
2019-02-24T07:17:14.975Z,36.30
2019-02-24T07:19:52.330Z,36.30
2019-02-24T07:22:28.883Z,36.10
2019-02-24T07:25:08.875Z,36.30
2019-02-24T07:27:46.368Z,36.20
2019-02-24T07:30:23.886Z,36.30
2019-02-24T07:33:00.547Z,36.40
2019-02-24T07:35:37.716Z,36.40
2019-02-24T07:38:14.621Z,35.90
2019-02-24T07:40:51.636Z,35.70
2019-02-24T07:43:28.717Z,35.70
2019-02-24T07:46:05.681Z,35.80
2019-02-24T07:48:42.532Z,35.50
2019-02-24T07:51:19.584Z,35.80
2019-02-24T07:53:56.238Z,36.30
2019-02-24T07:56:33.440Z,36.30
2019-02-24T07:59:10.871Z,36.20
2019-02-24T08:01:47.840Z,36.20
2019-02-24T08:04:24.375Z,36.30
2019-02-24T08:07:01.294Z,36.30
2019-02-24T08:09:38.157Z,36.30
2019-02-24T08:12:15.036Z,36.30
2019-02-24T08:14:51.963Z,36.10
2019-02-24T08:17:28.976Z,36.10
2019-02-24T08:20:05.754Z,36.10
2019-02-24T08:22:42.384Z,36.00
2019-02-24T08:25:18.988Z,35.90
2019-02-24T08:27:56.231Z,35.70
2019-02-24T08:30:41.024Z,35.70
2019-02-24T08:33:11.073Z,35.80
2019-02-24T08:35:47.516Z,35.80
2019-02-24T08:38:24.207Z,35.80
2019-02-24T08:41:01.450Z,35.70
2019-02-24T08:43:38.030Z,35.60
2019-02-24T08:46:15.305Z,35.80
2019-02-24T08:48:51.949Z,35.80
2019-02-24T08:51:28.823Z,35.90
2019-02-24T08:54:06.122Z,35.90
2019-02-24T08:56:42.967Z,35.80
2019-02-24T08:59:20.034Z,35.80
2019-02-24T09:01:56.826Z,35.80
2019-02-24T09:04:33.672Z,35.80
2019-02-24T09:07:10.230Z,35.60
2019-02-24T09:09:47.240Z,35.80
2019-02-24T09:12:23.865Z,35.80
2019-02-24T09:15:00.854Z,35.90
2019-02-24T09:17:37.608Z,35.80
2019-02-24T09:20:15.006Z,35.80
2019-02-24T09:22:52.782Z,35.80
2019-02-24T09:25:29.228Z,35.70
2019-02-24T09:28:06.128Z,35.50
2019-02-24T09:30:42.898Z,35.50
2019-02-24T09:33:19.446Z,35.40
2019-02-24T09:35:56.366Z,35.30
2019-02-24T09:38:35.227Z,35.30
2019-02-24T09:41:12.378Z,35.30
2019-02-24T09:43:49.029Z,35.30
2019-02-24T09:46:25.759Z,35.40
2019-02-24T09:49:02.988Z,35.40
2019-02-24T09:51:41.308Z,35.20
2019-02-24T09:54:17.899Z,35.00
2019-02-24T09:56:54.806Z,35.00
2019-02-24T09:59:31.422Z,34.90
2019-02-24T10:02:08.179Z,34.80
2019-02-24T10:04:46.117Z,34.70
2019-02-24T10:07:22.747Z,34.70
2019-02-24T10:09:59.224Z,34.70
2019-02-24T10:12:35.492Z,34.60
2019-02-24T10:15:12.295Z,34.60
2019-02-24T10:17:49.669Z,34.50
2019-02-24T10:20:27.141Z,34.40
2019-02-24T10:23:03.763Z,34.20
2019-02-24T10:25:40.651Z,34.10
2019-02-24T10:28:17.334Z,34.00
2019-02-24T10:30:54.402Z,33.90
2019-02-24T10:33:31.933Z,33.80
2019-02-24T10:36:08.708Z,33.70
2019-02-24T10:38:44.854Z,33.60
2019-02-24T10:41:21.748Z,33.40
2019-02-24T10:43:58.092Z,33.30
2019-02-24T10:46:34.856Z,32.90
2019-02-24T10:49:11.607Z,32.70
2019-02-24T10:51:48.501Z,32.60
2019-02-24T10:54:25.653Z,32.60
2019-02-24T10:57:02.698Z,32.50
2019-02-24T10:59:38.798Z,32.30
2019-02-24T11:02:15.769Z,32.30
2019-02-24T11:04:51.822Z,32.30
2019-02-24T11:07:28.294Z,32.00
2019-02-24T11:10:05.296Z,31.70
2019-02-24T11:12:41.967Z,31.50
2019-02-24T11:15:18.773Z,31.30
2019-02-24T11:17:55.712Z,31.30
2019-02-24T11:20:32.150Z,31.30
2019-02-24T11:23:10.096Z,31.30
2019-02-24T11:25:46.873Z,31.20
2019-02-24T11:28:23.717Z,31.00
2019-02-24T11:31:00.853Z,30.80
2019-02-24T11:33:38.314Z,30.80
2019-02-24T11:36:15.747Z,30.70
2019-02-24T11:38:52.485Z,30.50
2019-02-24T11:41:29.493Z,30.30
2019-02-24T11:44:06.066Z,30.20
2019-02-24T11:46:42.728Z,30.10
2019-02-24T11:49:19.416Z,30.10
2019-02-24T11:52:03.651Z,30.00
2019-02-24T11:54:34.613Z,29.90
2019-02-24T11:57:11.285Z,29.80
2019-02-24T11:59:48.289Z,29.70
2019-02-24T12:02:34.008Z,29.70
2019-02-24T12:05:03.634Z,29.60
2019-02-24T12:07:40.701Z,29.50
2019-02-24T12:10:17.637Z,29.60
2019-02-24T12:12:54.439Z,29.50
2019-02-24T12:15:31.665Z,29.60
2019-02-24T12:18:08.463Z,29.50
2019-02-24T12:20:45.277Z,29.40
2019-02-24T12:23:23.283Z,29.60
2019-02-24T12:25:59.769Z,29.60
2019-02-24T12:28:36.398Z,29.50
2019-02-24T12:31:14.143Z,29.40
2019-02-24T12:33:50.960Z,29.40
2019-02-24T12:36:27.837Z,29.40
2019-02-24T12:39:05.521Z,29.20
2019-02-24T12:41:43.575Z,29.10
2019-02-24T12:44:21.118Z,29.10
2019-02-24T12:46:57.487Z,28.90
2019-02-24T12:49:34.301Z,28.90
2019-02-24T12:52:11.417Z,28.90
2019-02-24T12:54:48.105Z,28.90
2019-02-24T12:57:24.983Z,28.80
2019-02-24T13:00:01.388Z,28.80
2019-02-24T13:02:37.555Z,28.70
2019-02-24T13:05:13.954Z,28.80
2019-02-24T13:07:51.238Z,28.70
2019-02-24T13:10:28.534Z,28.60
2019-02-24T13:13:05.322Z,28.50
2019-02-24T13:15:42.403Z,28.60
2019-02-24T13:18:19.139Z,28.40
2019-02-24T13:20:55.985Z,28.20
2019-02-24T13:23:32.692Z,28.40
2019-02-24T13:26:10.513Z,28.60
2019-02-24T13:28:50.552Z,28.70
2019-02-24T13:31:25.952Z,28.50
2019-02-24T13:34:06.333Z,28.30
2019-02-24T13:36:43.924Z,28.30
2019-02-24T13:39:20.777Z,28.30
2019-02-24T13:41:59.797Z,28.30
2019-02-24T13:44:37.727Z,28.20
2019-02-24T13:47:14.301Z,28.20
2019-02-24T13:49:50.676Z,28.10
2019-02-24T13:52:28.005Z,28.00
2019-02-24T13:55:04.743Z,27.90
2019-02-24T13:57:41.706Z,27.90
2019-02-24T14:00:20.000Z,27.80
2019-02-24T14:02:56.394Z,27.70
2019-02-24T14:05:33.112Z,27.70
2019-02-24T14:08:11.296Z,27.80
2019-02-24T14:10:47.883Z,27.60
2019-02-24T14:13:25.058Z,27.60
2019-02-24T14:16:02.470Z,27.60
2019-02-24T14:18:39.587Z,27.50
2019-02-24T14:21:35.046Z,27.50
2019-02-24T14:24:11.779Z,27.50
2019-02-24T14:26:48.702Z,27.40
2019-02-24T14:29:27.042Z,27.40
2019-02-24T14:32:03.331Z,27.30
2019-02-24T14:34:40.226Z,27.50
2019-02-24T14:37:17.641Z,27.40
2019-02-24T14:39:54.811Z,27.40
2019-02-24T14:42:32.246Z,27.40
2019-02-24T14:45:09.693Z,27.40
2019-02-24T14:47:46.519Z,27.20
2019-02-24T14:50:23.329Z,27.20
2019-02-24T14:52:59.583Z,27.10
2019-02-24T14:55:36.564Z,27.10
2019-02-24T14:58:13.326Z,27.10
2019-02-24T15:00:49.913Z,27.20
2019-02-24T15:03:27.017Z,27.10
2019-02-24T15:06:03.901Z,27.00
2019-02-24T15:08:40.497Z,26.90
2019-02-24T15:11:17.435Z,26.90
2019-02-24T15:13:54.204Z,26.80
2019-02-24T15:16:31.036Z,26.80
2019-02-24T15:19:07.937Z,26.80
2019-02-24T15:21:44.695Z,26.70
2019-02-24T15:24:21.680Z,26.70
2019-02-24T15:26:58.240Z,26.70
2019-02-24T15:29:35.821Z,26.70
2019-02-24T15:32:12.636Z,26.90
2019-02-24T15:34:49.572Z,26.80
2019-02-24T15:37:26.223Z,26.70
2019-02-24T15:40:03.114Z,26.80
2019-02-24T15:42:41.880Z,26.60
2019-02-24T15:45:18.617Z,26.60
2019-02-24T15:47:56.309Z,26.70
2019-02-24T15:50:32.956Z,26.60
2019-02-24T15:53:09.483Z,26.60
2019-02-24T15:55:45.971Z,26.60
2019-02-24T15:58:22.939Z,26.60
2019-02-24T16:00:59.680Z,26.70
2019-02-24T16:03:36.956Z,26.60
2019-02-24T16:06:14.796Z,26.60
2019-02-24T16:08:51.548Z,26.60
2019-02-24T16:11:28.972Z,26.50
2019-02-24T16:14:05.761Z,26.40
2019-02-24T16:16:42.348Z,26.40
2019-02-24T16:19:19.164Z,26.40
2019-02-24T16:21:55.911Z,26.50
2019-02-24T16:24:33.377Z,26.60
2019-02-24T16:27:09.471Z,26.40
2019-02-24T16:29:46.313Z,26.30
2019-02-24T16:32:23.115Z,26.30
2019-02-24T16:34:59.669Z,26.30
2019-02-24T16:37:38.893Z,26.30
2019-02-24T16:40:16.936Z,26.30
2019-02-24T16:42:54.112Z,26.40
2019-02-24T16:45:30.912Z,26.30
2019-02-24T16:48:07.840Z,26.20
2019-02-24T16:50:44.410Z,26.00
2019-02-24T16:53:21.441Z,26.10
2019-02-24T16:55:57.971Z,26.10
2019-02-24T16:58:34.603Z,25.90
2019-02-24T17:01:11.086Z,25.90
2019-02-24T17:03:47.835Z,25.90
2019-02-24T17:06:24.765Z,25.90
2019-02-24T17:09:03.177Z,25.90
2019-02-24T17:11:40.281Z,26.00
2019-02-24T17:14:17.205Z,25.80
2019-02-24T17:17:01.427Z,25.70
2019-02-24T17:19:32.074Z,25.70
2019-02-24T17:22:09.241Z,25.80
2019-02-24T17:24:46.371Z,25.90
2019-02-24T17:27:24.117Z,25.90
2019-02-24T17:30:01.145Z,26.00
2019-02-24T17:32:38.294Z,26.00
2019-02-24T17:35:15.233Z,26.00
2019-02-24T17:37:52.208Z,26.00
2019-02-24T17:40:29.196Z,26.10
2019-02-24T17:43:05.998Z,26.20
2019-02-24T17:45:42.427Z,26.10
2019-02-24T17:48:19.843Z,26.00
2019-02-24T17:50:56.676Z,26.00
2019-02-24T17:53:33.604Z,26.10
2019-02-24T17:56:10.403Z,26.20
2019-02-24T17:58:47.428Z,26.30
2019-02-24T18:01:23.935Z,26.30
2019-02-24T18:04:00.743Z,26.30
2019-02-24T18:06:37.899Z,26.40
2019-02-24T18:09:16.827Z,26.40
2019-02-24T18:11:53.205Z,26.40
2019-02-24T18:14:29.884Z,26.30
2019-02-24T18:17:06.630Z,26.20
2019-02-24T18:19:43.023Z,26.10
2019-02-24T18:22:19.927Z,26.10
2019-02-24T18:25:02.965Z,26.10
2019-02-24T18:27:35.920Z,26.00
2019-02-24T18:30:17.930Z,26.00
2019-02-24T18:32:55.067Z,26.10
2019-02-24T18:35:31.433Z,26.00
2019-02-24T18:38:07.911Z,26.00
2019-02-24T18:40:44.825Z,26.10
2019-02-24T18:43:21.305Z,26.00
2019-02-24T18:45:58.334Z,25.90
2019-02-24T18:48:35.068Z,26.00
2019-02-24T18:51:11.913Z,26.10
2019-02-24T18:53:48.831Z,26.00
2019-02-24T18:56:25.830Z,26.10
2019-02-24T18:59:02.427Z,26.10
2019-02-24T19:01:39.088Z,26.10
2019-02-24T19:04:15.836Z,26.10
2019-02-24T19:06:52.853Z,26.00
2019-02-24T19:09:29.963Z,26.00
2019-02-24T19:12:06.427Z,26.10
2019-02-24T19:14:43.091Z,26.00
2019-02-24T19:17:19.880Z,26.00
2019-02-24T19:19:56.374Z,26.00
2019-02-24T19:22:33.086Z,25.90
2019-02-24T19:25:09.761Z,25.90
2019-02-24T19:27:47.706Z,25.80
2019-02-24T19:30:24.654Z,25.80
2019-02-24T19:33:01.879Z,25.90
2019-02-24T19:35:38.428Z,25.80
2019-02-24T19:38:15.407Z,25.70
2019-02-24T19:40:52.238Z,25.60
2019-02-24T19:43:30.083Z,25.60
2019-02-24T19:46:07.207Z,25.70
2019-02-24T19:48:44.163Z,25.60
2019-02-24T19:51:20.789Z,25.60
2019-02-24T19:53:57.794Z,25.40
2019-02-24T19:56:34.549Z,25.50
2019-02-24T19:59:11.549Z,25.70
2019-02-24T20:01:49.227Z,25.70
2019-02-24T20:04:25.875Z,25.60
2019-02-24T20:07:03.214Z,25.70
2019-02-24T20:09:40.150Z,25.80
2019-02-24T20:12:16.627Z,25.70
2019-02-24T20:14:53.384Z,25.70
2019-02-24T20:17:30.359Z,25.70
2019-02-24T20:20:07.029Z,25.60
2019-02-24T20:22:43.988Z,25.60
2019-02-24T20:25:20.662Z,25.60
2019-02-24T20:27:57.999Z,25.50
2019-02-24T20:30:35.709Z,25.40
2019-02-24T20:33:13.089Z,25.40
2019-02-24T20:35:50.803Z,25.40
2019-02-24T20:38:27.801Z,25.40
2019-02-24T20:41:04.671Z,25.40
2019-02-24T20:43:42.431Z,25.30
2019-02-24T20:46:19.058Z,25.30
2019-02-24T20:48:55.975Z,25.20
2019-02-24T20:51:32.804Z,25.20
2019-02-24T20:54:09.572Z,25.20
2019-02-24T20:56:46.302Z,25.20
2019-02-24T20:59:23.385Z,25.10
2019-02-24T21:01:59.963Z,25.10
2019-02-24T21:04:36.629Z,25.10
2019-02-24T21:07:13.492Z,25.10
2019-02-24T21:09:50.342Z,25.20
2019-02-24T21:12:27.495Z,25.20
2019-02-24T21:15:04.254Z,25.20
2019-02-24T21:17:41.470Z,25.00
2019-02-24T21:20:20.749Z,25.00
2019-02-24T21:22:57.944Z,25.10
2019-02-24T21:25:34.542Z,25.00
2019-02-24T21:28:11.013Z,25.00
2019-02-24T21:30:48.344Z,24.80
2019-02-24T21:33:24.763Z,24.80
2019-02-24T21:36:01.586Z,25.00
2019-02-24T21:38:38.196Z,25.10
2019-02-24T21:41:14.894Z,24.90
2019-02-24T21:43:51.970Z,24.90
2019-02-24T21:46:28.972Z,24.90
2019-02-24T21:49:05.868Z,25.00
2019-02-24T21:51:43.900Z,25.00
2019-02-24T21:54:20.655Z,24.90
2019-02-24T21:56:58.556Z,24.80
2019-02-24T21:59:38.928Z,24.60
2019-02-24T22:02:15.588Z,24.70
2019-02-24T22:04:52.527Z,24.70
2019-02-24T22:07:29.672Z,24.70
2019-02-24T22:10:06.258Z,24.70
2019-02-24T22:12:43.419Z,24.60
2019-02-24T22:15:22.561Z,24.70
2019-02-24T22:18:00.822Z,24.70
2019-02-24T22:20:37.603Z,24.50
2019-02-24T22:23:14.194Z,24.50
2019-02-24T22:25:51.433Z,24.40
2019-02-24T22:28:29.063Z,24.50
2019-02-24T22:31:06.059Z,24.60
2019-02-24T22:33:43.596Z,24.60
2019-02-24T22:36:20.598Z,24.50
2019-02-24T22:38:58.460Z,24.50
2019-02-24T22:41:35.335Z,24.50
2019-02-24T22:44:11.984Z,24.50
2019-02-24T22:46:48.898Z,24.40
2019-02-24T22:49:25.571Z,24.30
2019-02-24T22:52:02.471Z,24.40
2019-02-24T22:54:39.200Z,24.20
2019-02-24T22:57:16.522Z,24.10
2019-02-24T22:59:53.349Z,24.20
2019-02-24T23:02:30.222Z,24.20
2019-02-24T23:05:07.127Z,24.30
2019-02-24T23:07:45.264Z,24.40
2019-02-24T23:10:22.059Z,24.40
2019-02-24T23:12:59.210Z,24.30
2019-02-24T23:15:36.038Z,24.20
2019-02-24T23:18:13.428Z,24.20
2019-02-24T23:20:50.435Z,24.30
2019-02-24T23:23:28.185Z,24.10
2019-02-24T23:26:04.923Z,24.00
2019-02-24T23:28:42.515Z,24.10
2019-02-24T23:31:19.353Z,24.30
2019-02-24T23:33:57.020Z,24.30
2019-02-24T23:36:33.632Z,24.20
2019-02-24T23:39:16.205Z,24.20
2019-02-24T23:41:52.669Z,24.30
2019-02-24T23:44:29.783Z,24.30
2019-02-24T23:47:06.631Z,24.20
2019-02-24T23:49:43.323Z,24.20
2019-02-24T23:52:20.110Z,24.30
2019-02-24T23:54:57.056Z,24.20
2019-02-24T23:57:33.882Z,24.20
